createdAt,value
2023-01-09T00:02:16.201Z,12.57
2023-01-09T00:05:01.063Z,14.93
2023-01-09T00:07:46.644Z,17.60
2023-01-09T00:10:31.988Z,13.68
2023-01-09T00:13:18.226Z,9.40
2023-01-09T00:16:05.373Z,10.57
2023-01-09T00:18:50.942Z,8.18
2023-01-09T00:21:36.996Z,8.80
2023-01-09T00:24:23.336Z,11.63
2023-01-09T00:27:08.632Z,12.00
2023-01-09T00:29:53.817Z,10.05
2023-01-09T00:32:38.784Z,9.52
2023-01-09T00:35:26.674Z,5.47
2023-01-09T00:38:11.696Z,4.57
2023-01-09T00:40:57.123Z,6.57
2023-01-09T00:43:51.274Z,5.72
2023-01-09T00:46:39.604Z,6.32
2023-01-09T00:49:25.470Z,3.40
2023-01-09T00:52:13.536Z,4.78
2023-01-09T00:54:59.592Z,3.85
2023-01-09T00:57:45.202Z,1.38
2023-01-09T01:00:30.369Z,4.72
2023-01-09T01:03:15.380Z,4.38
2023-01-09T01:06:19.279Z,0.40
2023-01-09T01:09:04.400Z,3.90
2023-01-09T01:11:49.442Z,5.13
2023-01-09T01:14:36.932Z,3.28
2023-01-09T01:17:21.949Z,4.70
2023-01-09T01:20:11.041Z,1.90
2023-01-09T01:22:56.215Z,1.20
2023-01-09T01:25:42.163Z,3.22
2023-01-09T01:28:27.105Z,6.15
2023-01-09T01:31:17.850Z,2.72
2023-01-09T01:34:03.400Z,3.08
2023-01-09T01:36:48.546Z,5.07
2023-01-09T01:39:33.700Z,1.88
2023-01-09T01:42:19.072Z,3.58
2023-01-09T01:45:20.412Z,2.15
2023-01-09T01:48:12.667Z,2.67
2023-01-09T01:51:05.838Z,2.28
2023-01-09T01:53:59.787Z,3.38
2023-01-09T01:56:48.994Z,3.47
2023-01-09T01:59:40.821Z,3.05
2023-01-09T02:02:29.349Z,2.22
2023-01-09T02:05:14.668Z,2.10
2023-01-09T02:07:59.959Z,5.90
2023-01-09T02:10:45.886Z,1.23
2023-01-09T02:13:34.500Z,3.67
2023-01-09T02:16:29.411Z,3.28
2023-01-09T02:19:30.056Z,3.38
2023-01-09T02:22:43.561Z,3.70
2023-01-09T02:26:19.569Z,2.80
2023-01-09T02:29:43.914Z,2.60
2023-01-09T02:32:49.408Z,4.35
2023-01-09T02:35:43.841Z,7.60
2023-01-09T02:38:58.109Z,1.85
2023-01-09T02:42:04.115Z,5.10
2023-01-09T02:44:50.549Z,5.40
2023-01-09T02:47:41.363Z,7.00
2023-01-09T02:50:41.823Z,10.32
2023-01-09T02:53:39.254Z,5.07
2023-01-09T02:56:51.797Z,3.38
2023-01-09T02:59:40.086Z,5.47
2023-01-09T03:02:40.871Z,8.43
2023-01-09T03:05:33.858Z,4.63
2023-01-09T03:08:27.553Z,3.65
2023-01-09T03:11:12.901Z,4.78
2023-01-09T03:14:05.357Z,4.00
2023-01-09T03:16:56.717Z,5.18
2023-01-09T03:19:45.008Z,4.78
2023-01-09T03:22:30.178Z,5.50
2023-01-09T03:25:18.223Z,6.32
2023-01-09T03:28:09.346Z,3.33
2023-01-09T03:30:54.460Z,9.25
2023-01-09T03:33:39.987Z,5.38
2023-01-09T03:36:25.367Z,7.65
2023-01-09T03:39:10.874Z,6.40
2023-01-09T03:41:56.129Z,7.45
2023-01-09T03:44:41.321Z,7.28
2023-01-09T03:47:26.259Z,9.48
2023-01-09T03:50:11.577Z,7.15
2023-01-09T03:52:57.075Z,12.88
2023-01-09T03:55:52.287Z,5.15
2023-01-09T03:58:37.248Z,15.43
2023-01-09T04:01:22.252Z,7.68
2023-01-09T04:04:07.373Z,9.20
2023-01-09T04:06:52.647Z,6.18
2023-01-09T04:09:38.038Z,11.00
2023-01-09T04:12:23.092Z,7.15
2023-01-09T04:15:08.730Z,5.50
2023-01-09T04:17:53.840Z,8.02
2023-01-09T04:20:39.019Z,7.85
2023-01-09T04:23:24.243Z,18.10
2023-01-09T04:26:09.080Z,10.52
2023-01-09T04:28:54.388Z,9.57
2023-01-09T04:31:39.326Z,13.40
2023-01-09T04:34:25.785Z,7.20
2023-01-09T04:37:11.186Z,8.27
2023-01-09T04:39:56.297Z,15.73
2023-01-09T04:42:41.812Z,6.97
2023-01-09T04:45:26.959Z,8.43
2023-01-09T04:48:12.087Z,9.40
2023-01-09T04:50:56.974Z,9.20
2023-01-09T04:53:42.006Z,27.38
2023-01-09T04:56:26.989Z,14.65
2023-01-09T04:59:12.219Z,15.82
2023-01-09T05:01:58.391Z,10.30
2023-01-09T05:04:43.620Z,8.82
2023-01-09T05:07:28.608Z,12.23
2023-01-09T05:10:13.662Z,11.52
2023-01-09T05:12:58.878Z,16.25
2023-01-09T05:15:43.853Z,12.45
2023-01-09T05:18:28.794Z,13.48
2023-01-09T05:21:14.753Z,13.70
2023-01-09T05:23:59.886Z,12.07
2023-01-09T05:26:45.278Z,10.65
2023-01-09T05:29:30.112Z,8.13
2023-01-09T05:32:15.128Z,11.57
2023-01-09T05:35:00.473Z,12.23
2023-01-09T05:37:46.551Z,10.48
2023-01-09T05:40:38.573Z,5.93
2023-01-09T05:43:25.358Z,13.80
2023-01-09T05:46:10.747Z,10.00
2023-01-09T05:48:55.776Z,13.35
2023-01-09T05:51:40.886Z,11.02
2023-01-09T05:54:26.128Z,13.63
2023-01-09T05:57:11.356Z,9.70
2023-01-09T05:59:56.253Z,17.65
2023-01-09T06:02:41.442Z,13.73
2023-01-09T06:05:26.575Z,11.57
2023-01-09T06:08:11.648Z,7.65
2023-01-09T06:10:56.819Z,14.77
2023-01-09T06:13:41.923Z,11.00
2023-01-09T06:16:26.993Z,13.60
2023-01-09T06:19:11.961Z,14.15
2023-01-09T06:21:56.929Z,15.32
2023-01-09T06:24:41.757Z,16.98
2023-01-09T06:27:26.783Z,13.07
2023-01-09T06:30:12.483Z,13.38
2023-01-09T06:32:57.480Z,13.88
2023-01-09T06:35:42.684Z,16.08
2023-01-09T06:38:27.648Z,15.93
2023-01-09T06:41:13.193Z,22.77
2023-01-09T06:43:58.434Z,15.50
2023-01-09T06:46:43.539Z,29.05
2023-01-09T06:49:28.633Z,12.98
2023-01-09T06:52:13.955Z,10.98
2023-01-09T06:54:59.166Z,6.53
2023-01-09T06:57:44.472Z,11.50
2023-01-09T07:00:31.337Z,16.55
2023-01-09T07:03:22.010Z,13.07
2023-01-09T07:06:07.559Z,12.52
2023-01-09T07:08:52.940Z,8.40
2023-01-09T07:11:38.346Z,14.82
2023-01-09T07:14:23.628Z,10.63
2023-01-09T07:17:12.096Z,7.13
2023-01-09T07:19:57.119Z,12.38
2023-01-09T07:22:42.339Z,13.35
2023-01-09T07:25:27.364Z,10.25
2023-01-09T07:28:12.388Z,14.52
2023-01-09T07:31:02.506Z,13.05
2023-01-09T07:33:47.836Z,9.35
2023-01-09T07:36:32.844Z,13.82
2023-01-09T07:39:18.239Z,13.20
2023-01-09T07:42:03.544Z,8.35
2023-01-09T07:44:48.808Z,10.35
2023-01-09T07:47:33.890Z,13.90
2023-01-09T07:50:19.541Z,8.10
2023-01-09T07:53:04.920Z,9.45
2023-01-09T07:55:49.874Z,10.13
2023-01-09T07:58:35.143Z,13.38
2023-01-09T08:01:20.490Z,11.68
2023-01-09T08:04:05.740Z,8.13
2023-01-09T08:06:50.923Z,12.27
2023-01-09T08:09:35.836Z,15.02
2023-01-09T08:12:20.882Z,17.92
2023-01-09T08:15:07.099Z,12.63
2023-01-09T08:17:52.102Z,11.82
2023-01-09T08:20:37.108Z,12.77
2023-01-09T08:23:21.989Z,12.80
2023-01-09T08:26:07.109Z,10.13
2023-01-09T08:28:52.443Z,11.60
2023-01-09T08:31:37.825Z,16.52
2023-01-09T08:34:23.088Z,14.43
2023-01-09T08:37:07.999Z,15.18
2023-01-09T08:39:53.459Z,16.67
2023-01-09T08:42:57.069Z,16.55
2023-01-09T08:46:00.911Z,15.93
2023-01-09T08:48:47.917Z,10.82
2023-01-09T08:51:33.036Z,10.43
2023-01-09T08:54:18.276Z,12.02
2023-01-09T08:57:03.333Z,14.73
2023-01-09T08:59:48.540Z,16.15
2023-01-09T09:02:33.874Z,16.00
2023-01-09T09:05:19.100Z,18.52
2023-01-09T09:08:04.671Z,12.23
2023-01-09T09:10:49.528Z,12.60
2023-01-09T09:13:34.572Z,12.98
2023-01-09T09:16:19.680Z,9.93
2023-01-09T09:19:05.028Z,17.50
2023-01-09T09:21:50.316Z,12.50
2023-01-09T09:24:35.625Z,18.05
2023-01-09T09:27:20.699Z,12.93
2023-01-09T09:30:06.854Z,11.38
2023-01-09T09:32:51.798Z,17.15
2023-01-09T09:35:37.256Z,18.13
2023-01-09T09:38:22.494Z,8.95
2023-01-09T09:41:51.166Z,9.82
2023-01-09T09:44:54.729Z,13.88
2023-01-09T09:47:59.104Z,7.63
2023-01-09T09:51:19.900Z,9.85
2023-01-09T09:54:17.045Z,11.60
2023-01-09T09:57:04.445Z,7.82
2023-01-09T09:59:51.551Z,9.38
2023-01-09T10:02:47.374Z,8.27
2023-01-09T10:05:40.628Z,14.50
2023-01-09T10:09:03.667Z,8.77
2023-01-09T10:12:31.363Z,8.52
2023-01-09T10:15:38.398Z,7.53
2023-01-09T10:18:48.707Z,9.38
2023-01-09T10:24:41.914Z,10.07
2023-01-09T10:27:58.561Z,8.95
2023-01-09T10:31:13.363Z,6.97
2023-01-09T10:34:26.207Z,10.88
2023-01-09T10:37:20.144Z,9.85
2023-01-09T10:40:13.697Z,8.27
2023-01-09T10:43:09.467Z,9.57
2023-01-09T10:46:00.030Z,17.65
2023-01-09T10:48:52.438Z,10.95
2023-01-09T10:52:00.849Z,9.07
2023-01-09T10:55:04.070Z,6.97
2023-01-09T10:57:59.556Z,7.53
2023-01-09T11:00:46.603Z,5.82
2023-01-09T11:03:31.704Z,8.73
2023-01-09T11:06:23.519Z,8.15
2023-01-09T11:09:08.532Z,8.00
2023-01-09T11:11:53.504Z,5.85
2023-01-09T11:14:38.777Z,7.53
2023-01-09T11:17:27.549Z,7.75
2023-01-09T11:20:15.770Z,4.38
2023-01-09T11:23:00.889Z,5.43
2023-01-09T11:25:53.524Z,10.05
2023-01-09T11:28:38.494Z,7.55
2023-01-09T11:31:25.002Z,5.20
2023-01-09T11:34:17.870Z,5.63
2023-01-09T11:37:04.558Z,7.53
2023-01-09T11:39:49.863Z,7.25
2023-01-09T11:42:53.386Z,8.25
2023-01-09T11:45:53.215Z,4.50
2023-01-09T11:48:57.010Z,5.43
2023-01-09T11:51:43.310Z,5.50
2023-01-09T11:54:37.831Z,3.92
2023-01-09T11:57:24.626Z,4.97
2023-01-09T12:00:28.328Z,6.78
2023-01-09T12:03:32.175Z,5.50
2023-01-09T12:06:17.097Z,7.10
2023-01-09T12:09:05.047Z,6.13
2023-01-09T12:11:59.932Z,5.95
2023-01-09T12:14:57.395Z,5.55
2023-01-09T12:17:51.571Z,3.60
2023-01-09T12:21:05.343Z,5.95
2023-01-09T12:24:25.568Z,5.15
2023-01-09T12:27:41.726Z,2.90
2023-01-09T12:30:48.619Z,3.15
2023-01-09T12:33:49.283Z,6.70
2023-01-09T12:36:50.983Z,2.50
2023-01-09T12:39:52.228Z,5.65
2023-01-09T12:43:04.979Z,7.28
2023-01-09T12:46:02.244Z,2.55
2023-01-09T12:48:59.872Z,4.55
2023-01-09T12:51:57.300Z,4.30
2023-01-09T12:55:13.432Z,6.22
2023-01-09T12:58:04.090Z,5.03
2023-01-09T13:00:54.231Z,5.10
2023-01-09T13:03:48.013Z,5.65
2023-01-09T13:06:35.532Z,5.70
2023-01-09T13:09:37.792Z,7.55
2023-01-09T13:12:25.199Z,6.72
2023-01-09T13:15:32.083Z,10.45
2023-01-09T13:18:27.337Z,5.05
2023-01-09T13:21:13.586Z,4.35
2023-01-09T13:24:13.551Z,6.30
2023-01-09T13:27:06.922Z,5.00
2023-01-09T13:30:00.753Z,5.07
2023-01-09T13:33:07.857Z,5.70
2023-01-09T13:35:55.999Z,6.43
2023-01-09T13:38:40.879Z,5.63
2023-01-09T13:41:46.292Z,11.48
2023-01-09T13:44:33.661Z,8.85
2023-01-09T13:47:28.081Z,6.18
2023-01-09T13:50:27.339Z,6.05
2023-01-09T13:53:18.707Z,9.65
2023-01-09T13:56:06.656Z,4.97
2023-01-09T13:58:54.599Z,6.68
2023-01-09T14:01:42.320Z,11.93
2023-01-09T14:04:40.671Z,6.35
2023-01-09T14:07:49.122Z,7.22
2023-01-09T14:10:45.871Z,5.70
2023-01-09T14:13:38.041Z,6.78
2023-01-09T14:16:27.009Z,8.48
2023-01-09T14:19:15.497Z,9.90
2023-01-09T14:22:01.300Z,10.80
2023-01-09T14:24:49.379Z,9.75
2023-01-09T14:28:23.696Z,4.28
2023-01-09T14:31:26.084Z,10.07
2023-01-09T14:34:39.000Z,9.05
2023-01-09T14:37:27.136Z,7.07
2023-01-09T14:40:23.495Z,8.18
2023-01-09T14:43:26.216Z,6.63
2023-01-09T14:46:16.042Z,9.38
2023-01-09T14:49:10.013Z,7.80
2023-01-09T14:51:56.162Z,3.22
2023-01-09T14:54:43.669Z,10.65
2023-01-09T14:57:31.240Z,13.52
2023-01-09T15:00:18.633Z,5.28
2023-01-09T15:03:04.043Z,7.78
2023-01-09T15:05:51.528Z,8.50
2023-01-09T15:08:36.822Z,6.40
2023-01-09T15:11:22.122Z,6.72
2023-01-09T15:14:10.225Z,8.43
2023-01-09T15:16:55.480Z,11.75
2023-01-09T15:19:45.090Z,10.18
2023-01-09T15:22:36.005Z,14.32
2023-01-09T15:25:38.100Z,12.20
2023-01-09T15:28:32.099Z,8.32
2023-01-09T15:31:22.243Z,9.70
2023-01-09T15:34:09.477Z,16.10
2023-01-09T15:36:55.315Z,11.88
2023-01-09T15:39:40.645Z,12.60
2023-01-09T15:42:47.322Z,8.10
2023-01-09T15:45:45.065Z,9.07
2023-01-09T15:48:33.297Z,7.03
2023-01-09T15:51:18.443Z,6.40
2023-01-09T15:54:04.163Z,8.43
2023-01-09T15:56:49.347Z,5.03
2023-01-09T15:59:34.591Z,8.63
2023-01-09T16:02:40.645Z,14.38
2023-01-09T16:05:25.925Z,9.25
2023-01-09T16:08:42.242Z,23.83
2023-01-09T16:11:30.990Z,11.40
2023-01-09T16:14:23.031Z,12.85
2023-01-09T16:17:15.487Z,10.57
2023-01-09T16:20:15.925Z,12.80
2023-01-09T16:23:02.759Z,15.07
2023-01-09T16:25:48.076Z,12.90
2023-01-09T16:28:33.414Z,15.32
2023-01-09T16:31:20.447Z,14.35
2023-01-09T16:34:07.227Z,27.75
2023-01-09T16:36:52.503Z,13.07
2023-01-09T16:39:38.705Z,13.07
2023-01-09T16:42:42.345Z,12.10
2023-01-09T16:45:38.833Z,8.98
2023-01-09T16:48:24.109Z,10.18
2023-01-09T16:51:18.730Z,11.30
2023-01-09T16:54:03.986Z,12.65
2023-01-09T16:56:52.396Z,18.20
2023-01-09T16:59:37.957Z,13.95
2023-01-09T17:02:23.155Z,15.80
2023-01-09T17:05:08.426Z,10.05
2023-01-09T17:07:54.569Z,10.98
2023-01-09T17:10:39.723Z,16.23
2023-01-09T17:13:25.813Z,16.45
2023-01-09T17:16:11.230Z,13.60
2023-01-09T17:18:56.667Z,11.52
2023-01-09T17:21:41.857Z,11.70
2023-01-09T17:24:46.004Z,15.48
2023-01-09T17:27:52.982Z,14.00
2023-01-09T17:30:38.222Z,12.82
2023-01-09T17:33:23.049Z,12.40
2023-01-09T17:36:32.089Z,13.60
2023-01-09T17:39:17.610Z,12.73
2023-01-09T17:42:02.529Z,16.48
2023-01-09T17:44:47.630Z,14.45
2023-01-09T17:47:33.855Z,13.50
2023-01-09T17:50:20.910Z,12.57
2023-01-09T17:53:05.717Z,14.10
2023-01-09T17:55:50.803Z,12.45
2023-01-09T17:58:35.917Z,13.85
2023-01-09T18:01:21.667Z,9.55
2023-01-09T18:04:06.878Z,10.20
2023-01-09T18:06:54.476Z,9.32
2023-01-09T18:09:39.469Z,11.93
2023-01-09T18:12:24.689Z,10.32
2023-01-09T18:15:10.254Z,11.60
2023-01-09T18:17:55.289Z,11.93
2023-01-09T18:20:41.759Z,9.75
2023-01-09T18:23:27.321Z,8.77
2023-01-09T18:26:20.047Z,9.40
2023-01-09T18:29:05.288Z,12.65
2023-01-09T18:31:51.731Z,12.25
2023-01-09T18:34:36.680Z,9.82
2023-01-09T18:37:21.716Z,12.73
2023-01-09T18:40:08.582Z,7.13
2023-01-09T18:42:53.723Z,8.30
2023-01-09T18:45:39.185Z,13.80
2023-01-09T18:48:24.389Z,10.63
2023-01-09T18:51:09.813Z,9.63
2023-01-09T18:53:55.952Z,9.55
2023-01-09T18:56:41.234Z,12.98
2023-01-09T18:59:26.494Z,13.20
2023-01-09T19:02:25.905Z,8.10
2023-01-09T19:05:10.917Z,11.45
2023-01-09T19:07:56.740Z,12.25
2023-01-09T19:10:42.069Z,11.50
2023-01-09T19:13:32.558Z,14.75
2023-01-09T19:16:17.880Z,18.75
2023-01-09T19:19:03.383Z,14.82
2023-01-09T19:21:48.470Z,10.90
2023-01-09T19:24:33.734Z,9.80
2023-01-09T19:27:18.985Z,11.23
2023-01-09T19:30:04.923Z,16.92
2023-01-09T19:32:50.068Z,15.10
2023-01-09T19:35:35.044Z,13.32
2023-01-09T19:38:22.544Z,18.92
2023-01-09T19:41:14.560Z,12.18
2023-01-09T19:44:00.143Z,11.95
2023-01-09T19:46:45.039Z,13.18
2023-01-09T19:49:37.965Z,16.10
2023-01-09T19:52:23.269Z,14.93
2023-01-09T19:55:10.991Z,13.63
2023-01-09T19:57:56.223Z,16.88
2023-01-09T20:00:41.156Z,15.30
2023-01-09T20:03:26.181Z,17.45
2023-01-09T20:06:14.426Z,18.55
2023-01-09T20:09:01.918Z,12.77
2023-01-09T20:11:46.972Z,11.88
2023-01-09T20:14:32.043Z,17.27
2023-01-09T20:17:17.868Z,16.77
2023-01-09T20:20:03.072Z,15.30
2023-01-09T20:22:48.305Z,19.92
2023-01-09T20:25:33.323Z,18.17
2023-01-09T20:28:18.299Z,12.90
2023-01-09T20:31:05.682Z,23.67
2023-01-09T20:33:51.180Z,22.05
2023-01-09T20:36:36.425Z,19.85
2023-01-09T20:39:21.589Z,20.92
2023-01-09T20:42:06.726Z,20.70
2023-01-09T20:44:52.115Z,22.98
2023-01-09T20:47:37.164Z,16.63
2023-01-09T20:50:31.233Z,25.59
2023-01-09T20:53:16.541Z,21.33
2023-01-09T20:56:03.359Z,16.23
2023-01-09T20:58:48.383Z,22.27
2023-01-09T21:01:34.824Z,22.38
2023-01-09T21:04:20.418Z,19.70
2023-01-09T21:07:05.735Z,23.67
2023-01-09T21:09:51.045Z,22.02
2023-01-09T21:12:36.267Z,20.25
2023-01-09T21:15:21.708Z,26.02
2023-01-09T21:18:06.954Z,26.05
2023-01-09T21:20:52.156Z,27.10
2023-01-09T21:23:37.505Z,32.83
2023-01-09T21:26:27.358Z,21.75
2023-01-09T21:29:12.982Z,24.20
2023-01-09T21:31:58.468Z,19.55
2023-01-09T21:34:43.595Z,24.58
2023-01-09T21:37:29.920Z,25.35
2023-01-09T21:40:17.149Z,27.77
2023-01-09T21:43:20.633Z,26.48
2023-01-09T21:46:24.446Z,27.90
2023-01-09T21:49:09.657Z,26.50
2023-01-09T21:51:55.151Z,25.33
2023-01-09T21:54:41.645Z,29.23
2023-01-09T21:57:26.689Z,29.27
2023-01-09T22:00:12.444Z,26.10
2023-01-09T22:02:58.982Z,25.60
2023-01-09T22:05:44.108Z,25.58
2023-01-09T22:08:29.065Z,27.00
2023-01-09T22:11:16.091Z,25.90
2023-01-09T22:14:01.502Z,29.55
2023-01-09T22:16:47.060Z,25.30
2023-01-09T22:19:32.481Z,28.38
2023-01-09T22:22:17.347Z,29.38
2023-01-09T22:25:03.617Z,33.63
2023-01-09T22:27:48.949Z,27.20
2023-01-09T22:30:34.147Z,30.08
2023-01-09T22:33:18.939Z,26.95
2023-01-09T22:36:06.599Z,23.00
2023-01-09T22:38:56.571Z,29.88
2023-01-09T22:44:27.193Z,23.90
2023-01-09T22:47:12.431Z,25.55
2023-01-09T22:49:57.325Z,22.33
2023-01-09T22:52:42.379Z,22.65
2023-01-09T22:55:27.575Z,30.85
2023-01-09T22:58:12.545Z,29.40
2023-01-09T23:00:58.464Z,26.52
2023-01-09T23:03:43.584Z,19.10
2023-01-09T23:06:28.624Z,26.25
2023-01-09T23:09:13.877Z,24.48
2023-01-09T23:12:02.012Z,27.20
2023-01-09T23:14:46.766Z,26.65
2023-01-09T23:17:31.841Z,28.92
2023-01-09T23:20:16.894Z,27.67
2023-01-09T23:23:02.099Z,24.98
2023-01-09T23:25:56.275Z,30.35
2023-01-09T23:28:41.481Z,24.80
2023-01-09T23:31:26.520Z,23.02
2023-01-09T23:34:22.896Z,22.58
2023-01-09T23:37:09.550Z,22.42
2023-01-09T23:39:54.986Z,23.55
2023-01-09T23:42:58.778Z,24.48
2023-01-09T23:45:45.419Z,31.95
2023-01-09T23:48:30.418Z,24.95
2023-01-09T23:51:15.686Z,29.67
2023-01-09T23:54:00.564Z,21.90
2023-01-09T23:56:45.655Z,26.63
2023-01-09T23:59:30.833Z,29.42
